This is the latest recevied weather packets stored in our database for station/object G4RHR. If no packets are shown the sender has not sent any weather packets the latest 10 day(s).
| Time | Temp. | Humidity | Pressure | Rain* | Wind** | Luminosity | Snow |
|---|---|---|---|---|---|---|---|
| 1777538114 | 15° C | 58% | 1024.3 hPa | 0 mm | - | - | - |
| 1777525150 | 11.11° C | 76% | 1023.8 hPa | 0 mm | - | - | - |
| 1777523940 | 10.56° C | 75% | 1023.8 hPa | 0 mm | - | - | - |
| 1777522861 | 10.56° C | 75% | 1023.7 hPa | 0 mm | - | - | - |
| 1777522321 | 10.56° C | 75% | 1023.6 hPa | 0 mm | - | - | - |
| 1777521780 | 11.11° C | 75% | 1023.6 hPa | 0 mm | - | - | - |
| 1777520701 | 11.11° C | 74% | 1023.6 hPa | 0 mm | - | - | - |
| 1777514760 | 11.11° C | 76% | 1023.9 hPa | 0 mm | - | - | - |
| 1777511521 | 11.11° C | 74% | 1024 hPa | 0 mm | - | - | - |
| 1777503421 | 11.67° C | 78% | 1024.3 hPa | 0 mm | - | - | - |
| 1777500181 | 12.22° C | 74% | 1024 hPa | 0 mm | - | - | - |
| 1777497483 | 11.67° C | 75% | 1023.8 hPa | 0 mm | - | - | - |
| 1777494781 | 11.67° C | 74% | 1023.7 hPa | 0 mm | - | - | - |
| 1777493703 | 11.67° C | 75% | 1023.8 hPa | 0 mm | - | - | - |
| 1777487355 | 13.33° C | 64% | 1023.2 hPa | 0 mm | - | - | - |
| 1777483571 | 14.44° C | 56% | 1023.6 hPa | 0 mm | - | - | - |
| 1777478586 | 15.56° C | 51% | 1024 hPa | 0 mm | - | - | - |
| 1777474800 | 15.56° C | 52% | 1024.5 hPa | 0 mm | - | - | - |
| 1777471560 | 16.11° C | 49% | 1024.9 hPa | 0 mm | - | - | - |
| 1777469941 | 15.56° C | 51% | 1025.1 hPa | 0 mm | - | - | - |
| 1777466700 | 16.11° C | 47% | 1025 hPa | 0 mm | - | - | - |
| 1777464000 | 16.11° C | 49% | 1025.3 hPa | 0 mm | - | - | - |
| 1777462381 | 15.56° C | 50% | 1025.2 hPa | 0 mm | - | - | - |
| 1777461303 | 15.56° C | 48% | 1025.1 hPa | 0 mm | - | - | - |
| 1777458060 | 15.56° C | 51% | 1025.3 hPa | 0 mm | - | - | - |
* Rain latest hour (hover to see other rain measurements)
** Current wind speed in m/s (hover to see current wind gust speed)